Camp Pendleton Marine Corps Air Station, CA

9:01 AM PST on December 29, 2014 (GMT -0800)
Camp Pendleton Marine Corps Air Station | Change Station
CLOSE
Current Station
Airport
Location: Camp Pendleton,
Elevation: 75 ft
Nearby Weather Stations
Active Advisory: Winter Storm Watch

Elev 75 ft 33.30 °N, 117.36 °W | Updated 7 minutes ago

Partly Cloudy
Partly Cloudy
45 °F
Feels Like 45 °F
N
0
Wind Variable Wind from North

Today
High -- | Low -- °F
--% Chance of Precip.
Yesterday
High -- | Low -- °F
Precip. -- in
6:52 AM 4:50 PM
First Quarter, 60% visible
Pressure 30.17 in
Visibility 7.0 miles
Clouds Few 2000 ft
Dew Point 36 °F
Humidity 71%
Rainfall 0.00 in
Snow Depth Not available.
UV 1 out of 12
Pollen 5.10 out of 12
Air Quality Not available.
Flu Activity Not available.
METAR KNFG 291654Z 00000KT 7SM FEW020 07/02 A3017 RMK AO2 SLP216 T00720022 $

More Conditions Fewer Conditions

Pressure 30.17 in
Visibility 7.0 miles
Clouds Few 2000 ft
Dew Point 36 °F
Humidity 71%
Rainfall 0.00 in
Snow Depth Not available.
UV 1 out of 12
Pollen 5.10 out of 12
Air Quality Not available.
Flu Activity Not available.
METAR KNFG 291654Z 00000KT 7SM FEW020 07/02 A3017 RMK AO2 SLP216 T00720022 $

More Conditions Fewer Conditions

10-Day Weather Forecast

Almanac

Astronomy

Dec. 29, 2014 Rise Set
Actual Time
Civil Twilight
Nautical Twilight
Astronomical Twilight
Moon
Length of Visible Light
Length of Day
Tomorrow will be .
, % of the Moon is Illuminated

Today's Extremes

State Highs State Lows

Community

WunderPhotos

Upload Photos

1,781,646 photos uploaded!

WunderBlogs® & News

Nearby

Air Quality

  Air Quality AQ Index Pollutant
Not available.

Snow Depth

Station Depth Elevation

Earthquake Activity

City Distance Mag. Time & Date
Minimum magnitude displayed is 2.5.

Coastal Water Temperatures

Place Temperature

Nearby Weather Stations